Time;durP1;ratioP1;P1;durP2;ratioP2;P2;SDS_P1;SDS_P2;PMS_P1;PMS_P2;Temp;Humidity;BMP_temperature;BMP_pressure;BME280_temperature;BME280_humidity;BME280_pressure;Samples;Min_cycle;Max_cycle;Signal;HPM_P1;HPM_P2
2024/01/26 00:00:08;;;;;;;3.03;2.58;;;8.30;99.90;;;;;;5081541;28;20281;-80
2024/01/26 00:02:35;;;;;;;2.63;2.42;;;8.50;99.90;;;;;;5087868;28;20197;-79
2024/01/26 00:05:02;;;;;;;2.35;2.15;;;8.50;99.90;;;;;;5069293;28;20224;-79
2024/01/26 00:07:29;;;;;;;2.90;2.40;;;8.50;99.90;;;;;;5079990;28;20641;-80
2024/01/26 00:09:56;;;;;;;2.72;2.50;;;8.40;99.90;;;;;;5079460;28;20576;-80
2024/01/26 00:12:23;;;;;;;2.95;2.50;;;8.40;99.90;;;;;;5080641;28;20204;-79
2024/01/26 00:14:50;;;;;;;3.20;2.58;;;8.40;99.90;;;;;;5084804;28;20197;-80
2024/01/26 00:17:19;;;;;;;3.42;2.50;;;8.40;99.90;;;;;;5078357;28;20197;-80
2024/01/26 00:19:49;;;;;;;2.35;2.15;;;8.50;99.90;;;;;;5084499;28;20308;-81
2024/01/26 00:22:16;;;;;;;2.42;2.22;;;8.70;99.90;;;;;;5080686;28;20193;-79
2024/01/26 00:24:48;;;;;;;2.63;2.42;;;8.70;99.90;;;;;;5088413;28;20198;-80
2024/01/26 00:27:15;;;;;;;2.67;2.10;;;8.80;99.90;;;;;;5070707;28;20201;-79
2024/01/26 00:29:42;;;;;;;2.85;2.40;;;8.70;99.90;;;;;;5088968;28;20199;-79
2024/01/26 00:32:09;;;;;;;3.17;2.63;;;8.60;99.90;;;;;;5096652;28;20280;-80
2024/01/26 00:34:38;;;;;;;6.30;2.65;;;8.60;99.90;;;;;;5084012;28;20196;-80
2024/01/26 00:37:05;;;;;;;3.10;2.67;;;8.60;99.90;;;;;;5076294;28;20200;-80
2024/01/26 00:39:31;;;;;;;2.33;2.13;;;8.60;99.90;;;;;;5083250;28;20238;-80
2024/01/26 00:41:58;;;;;;;3.50;2.20;;;8.60;99.90;;;;;;5085537;28;20205;-80
2024/01/26 00:44:25;;;;;;;3.33;2.33;;;8.60;99.90;;;;;;5087280;28;20193;-80
2024/01/26 00:46:52;;;;;;;3.95;2.80;;;8.60;99.90;;;;;;5084047;28;20208;-80
2024/01/26 00:49:19;;;;;;;3.00;2.70;;;8.60;99.90;;;;;;5043452;28;20547;-80
2024/01/26 00:51:48;;;;;;;2.67;2.42;;;8.60;99.90;;;;;;5078507;28;20215;-81
2024/01/26 00:54:15;;;;;;;3.58;2.47;;;8.60;99.90;;;;;;5081676;28;20288;-79
2024/01/26 00:56:42;;;;;;;2.83;2.63;;;8.60;99.90;;;;;;5089351;28;20199;-80
2024/01/26 00:59:09;;;;;;;2.80;2.42;;;8.70;99.90;;;;;;5084126;28;20213;-80
2024/01/26 01:01:36;;;;;;;2.95;2.67;;;8.80;99.90;;;;;;5084497;28;20193;-80
2024/01/26 01:04:05;;;;;;;2.90;2.70;;;8.80;99.90;;;;;;5062692;28;20235;-81
2024/01/26 01:06:32;;;;;;;2.97;2.78;;;8.80;99.90;;;;;;5057369;28;20224;-80
2024/01/26 01:09:02;;;;;;;3.13;2.63;;;8.70;99.90;;;;;;5079887;28;20241;-80
2024/01/26 01:11:31;;;;;;;3.65;2.70;;;8.70;99.90;;;;;;5077148;28;20287;-79
2024/01/26 01:13:58;;;;;;;3.10;2.80;;;8.70;99.90;;;;;;5082802;28;20571;-79
2024/01/26 01:16:24;;;;;;;3.10;2.80;;;8.60;99.90;;;;;;5086690;28;20196;-80
2024/01/26 01:18:51;;;;;;;3.38;2.42;;;8.60;99.90;;;;;;5081242;28;20560;-80
2024/01/26 01:21:18;;;;;;;2.50;2.30;;;8.60;99.90;;;;;;5080564;28;20653;-82
2024/01/26 01:23:52;;;;;;;2.88;2.67;;;8.60;99.90;;;;;;5078951;28;20197;-79
2024/01/26 01:26:21;;;;;;;2.88;2.60;;;8.60;99.90;;;;;;5079301;28;20197;-80
2024/01/26 01:28:47;;;;;;;2.80;2.38;;;8.60;99.90;;;;;;5086075;28;20207;-83
2024/01/26 01:31:16;;;;;;;2.60;2.40;;;8.60;99.90;;;;;;5069673;28;20195;-80
2024/01/26 01:33:43;;;;;;;3.08;2.78;;;8.60;99.90;;;;;;5090361;28;20189;-80
2024/01/26 01:36:10;;;;;;;3.80;2.80;;;8.50;99.90;;;;;;5087178;28;20200;-79
2024/01/26 01:38:37;;;;;;;2.53;2.25;;;8.40;99.90;;;;;;5078293;28;20217;-80
2024/01/26 01:41:13;;;;;;;2.70;2.50;;;8.40;99.90;;;;;;5076972;28;20204;-80
2024/01/26 01:43:41;;;;;;;3.28;2.58;;;8.40;99.90;;;;;;5060023;28;20212;-80
2024/01/26 01:46:09;;;;;;;2.83;2.38;;;8.40;99.90;;;;;;5082740;28;20196;-80
2024/01/26 01:48:36;;;;;;;2.70;2.50;;;8.50;99.90;;;;;;5084242;28;20653;-79
2024/01/26 01:51:04;;;;;;;2.53;2.33;;;8.50;99.90;;;;;;5078442;28;20201;-80
2024/01/26 01:53:31;;;;;;;2.75;2.38;;;8.40;99.90;;;;;;5081992;28;20195;-80
2024/01/26 01:56:02;;;;;;;2.35;2.15;;;8.40;99.90;;;;;;5091892;28;20188;-80
2024/01/26 01:58:30;;;;;;;3.20;2.30;;;8.40;99.90;;;;;;5085478;28;20213;-80
2024/01/26 02:00:59;;;;;;;4.32;2.65;;;8.40;99.90;;;;;;5087110;28;20685;-80
2024/01/26 02:03:26;;;;;;;2.55;2.35;;;8.40;99.90;;;;;;5083483;28;20224;-81
2024/01/26 02:05:52;;;;;;;2.70;2.30;;;8.40;99.90;;;;;;5068306;28;20628;-80
2024/01/26 02:08:19;;;;;;;2.30;2.10;;;8.40;99.90;;;;;;5084546;28;20208;-80
2024/01/26 02:10:46;;;;;;;2.88;2.60;;;8.50;99.90;;;;;;5080682;28;20193;-80
2024/01/26 02:13:13;;;;;;;2.65;2.45;;;8.60;99.90;;;;;;5078706;28;20560;-80
2024/01/26 02:15:40;;;;;;;2.72;2.50;;;8.50;99.90;;;;;;5079298;28;20194;-80
2024/01/26 02:18:08;;;;;;;2.75;2.55;;;8.50;99.90;;;;;;5085718;28;20199;-79
2024/01/26 02:20:35;;;;;;;4.00;3.00;;;8.50;99.90;;;;;;5082082;28;20201;-80
2024/01/26 02:23:02;;;;;;;3.00;2.70;;;8.40;99.90;;;;;;5076605;28;20201;-79
2024/01/26 02:25:36;;;;;;;3.58;3.28;;;8.40;99.90;;;;;;5087203;28;20207;-80
2024/01/26 02:28:03;;;;;;;3.40;3.10;;;8.40;99.90;;;;;;5075055;28;20200;-79
2024/01/26 02:30:33;;;;;;;3.78;3.40;;;8.40;99.90;;;;;;5085732;28;20208;-80
2024/01/26 02:33:00;;;;;;;3.28;2.97;;;8.40;99.90;;;;;;5077574;28;20208;-79
2024/01/26 02:35:27;;;;;;;3.40;3.10;;;8.50;99.90;;;;;;5077930;28;20212;-80
2024/01/26 02:37:54;;;;;;;3.63;3.30;;;8.40;99.90;;;;;;5075864;28;20218;-81
2024/01/26 02:40:22;;;;;;;3.35;3.05;;;8.50;99.90;;;;;;5077014;28;20220;-80
2024/01/26 02:42:50;;;;;;;5.22;3.33;;;8.50;99.90;;;;;;5089495;28;20200;-81
2024/01/26 02:45:17;;;;;;;4.00;3.55;;;8.40;99.90;;;;;;5083132;28;20207;-80
2024/01/26 02:47:44;;;;;;;4.20;3.80;;;8.30;99.90;;;;;;5066062;28;20201;-79
2024/01/26 02:50:11;;;;;;;4.43;4.03;;;8.30;99.90;;;;;;5075984;28;20201;-80
2024/01/26 02:52:38;;;;;;;4.97;3.85;;;8.30;99.90;;;;;;5079345;28;20192;-79
2024/01/26 02:55:05;;;;;;;4.28;3.88;;;8.30;99.90;;;;;;5082964;28;20201;-79
2024/01/26 02:57:31;;;;;;;5.57;4.32;;;8.30;99.90;;;;;;5084279;28;20572;-79
2024/01/26 02:59:59;;;;;;;4.78;4.28;;;8.30;99.90;;;;;;5085798;28;20220;-80
2024/01/26 03:02:26;;;;;;;4.55;4.05;;;8.30;99.90;;;;;;5080459;28;20189;-81
2024/01/26 03:04:53;;;;;;;4.93;4.43;;;8.40;99.90;;;;;;5061584;28;20217;-79
2024/01/26 03:07:20;;;;;;;4.32;3.92;;;8.50;99.90;;;;;;5076422;28;20203;-80
2024/01/26 03:09:47;;;;;;;4.72;4.03;;;8.50;99.90;;;;;;5080486;28;20206;-80
2024/01/26 03:12:14;;;;;;;4.95;4.45;;;8.50;99.90;;;;;;5085858;28;20671;-80
2024/01/26 03:14:48;;;;;;;4.80;4.38;;;8.50;99.90;;;;;;5086118;28;20197;-82
2024/01/26 03:17:16;;;;;;;5.22;4.72;;;8.50;99.90;;;;;;5081899;28;20676;-80
2024/01/26 03:19:43;;;;;;;5.22;4.72;;;8.40;99.90;;;;;;5087859;28;20216;-80
2024/01/26 03:22:10;;;;;;;5.32;4.70;;;8.40;99.90;;;;;;5083416;28;20211;-80
2024/01/26 03:24:36;;;;;;;5.40;4.90;;;8.40;99.90;;;;;;5078806;28;20193;-80
2024/01/26 03:27:04;;;;;;;5.22;4.72;;;8.40;99.90;;;;;;5075620;28;20197;-80
2024/01/26 03:29:31;;;;;;;5.07;4.57;;;8.40;99.90;;;;;;5078940;28;20197;-80
2024/01/26 03:31:58;;;;;;;4.78;4.38;;;8.40;99.90;;;;;;5083091;28;20229;-80
2024/01/26 03:34:26;;;;;;;5.20;4.70;;;8.40;99.90;;;;;;5090115;28;20209;-81
2024/01/26 03:36:53;;;;;;;5.00;4.50;;;8.50;99.90;;;;;;5086418;28;20774;-80
2024/01/26 03:39:20;;;;;;;7.47;4.72;;;8.50;99.90;;;;;;5083646;28;20229;-80
2024/01/26 03:41:46;;;;;;;5.03;4.53;;;8.70;99.90;;;;;;5087049;28;20203;-80
2024/01/26 03:44:13;;;;;;;4.72;4.20;;;8.60;99.90;;;;;;5092748;28;20209;-80
2024/01/26 03:46:44;;;;;;;4.88;4.38;;;8.60;99.90;;;;;;5086129;28;20204;-79
2024/01/26 03:49:10;;;;;;;4.50;4.03;;;8.50;99.90;;;;;;5090991;28;20206;-83
2024/01/26 03:51:39;;;;;;;4.40;4.00;;;8.50;99.90;;;;;;5087223;28;20196;-79
2024/01/26 03:54:06;;;;;;;4.75;4.25;;;8.50;99.90;;;;;;5090190;28;20246;-80
2024/01/26 03:56:32;;;;;;;5.35;4.32;;;8.50;99.90;;;;;;5085002;28;20208;-80
2024/01/26 03:58:59;;;;;;;4.57;4.07;;;8.60;99.90;;;;;;5079583;28;20225;-80
2024/01/26 04:01:26;;;;;;;4.97;4.47;;;8.60;99.90;;;;;;5079971;28;20224;-80
2024/01/26 04:03:53;;;;;;;5.95;4.43;;;8.60;99.90;;;;;;5081162;28;20201;-80
2024/01/26 04:06:20;;;;;;;4.25;3.85;;;8.60;99.90;;;;;;5083387;28;20201;-80
2024/01/26 04:08:48;;;;;;;4.43;4.03;;;8.60;99.90;;;;;;5088978;28;20204;-79
2024/01/26 04:11:15;;;;;;;4.20;3.85;;;8.60;99.90;;;;;;5084302;28;20189;-80
2024/01/26 04:13:41;;;;;;;3.97;3.58;;;8.60;99.90;;;;;;5085910;28;20203;-80
2024/01/26 04:16:08;;;;;;;4.82;4.43;;;8.70;99.90;;;;;;5084906;28;20216;-79
2024/01/26 04:18:35;;;;;;;4.65;3.53;;;8.70;99.90;;;;;;5092038;28;20193;-80
2024/01/26 04:21:02;;;;;;;4.13;3.72;;;8.70;99.90;;;;;;5084711;28;20201;-80
2024/01/26 04:23:28;;;;;;;3.70;3.40;;;8.70;99.90;;;;;;5069897;28;20200;-80
2024/01/26 04:25:57;;;;;;;4.82;3.70;;;8.80;99.90;;;;;;5081018;28;20211;-80
2024/01/26 04:28:23;;;;;;;4.10;3.70;;;8.80;99.90;;;;;;5078394;28;20200;-79
2024/01/26 04:30:50;;;;;;;4.22;3.83;;;8.80;99.90;;;;;;5088291;28;20197;-80
2024/01/26 04:33:17;;;;;;;4.78;4.28;;;8.80;99.90;;;;;;5087445;28;20208;-81
2024/01/26 04:35:44;;;;;;;6.82;4.78;;;8.80;99.90;;;;;;5090079;28;20196;-80
2024/01/26 04:38:11;;;;;;;5.05;4.55;;;8.80;99.90;;;;;;5081954;28;20204;-84
2024/01/26 04:40:38;;;;;;;5.03;4.45;;;8.70;99.90;;;;;;5083595;28;20224;-80
2024/01/26 04:43:07;;;;;;;5.05;4.55;;;8.70;99.90;;;;;;5076987;28;20285;-80
2024/01/26 04:45:35;;;;;;;5.22;4.72;;;8.70;99.90;;;;;;5085990;28;20227;-80
2024/01/26 04:48:03;;;;;;;6.15;4.65;;;8.70;99.90;;;;;;5081569;28;20196;-81
2024/01/26 04:50:30;;;;;;;5.93;4.63;;;8.70;99.90;;;;;;5085597;28;20197;-79
2024/01/26 04:52:57;;;;;;;5.55;4.75;;;8.60;99.90;;;;;;5082601;28;20197;-80
2024/01/26 04:55:24;;;;;;;5.80;4.95;;;8.50;99.90;;;;;;5065601;28;20596;-79
2024/01/26 04:57:50;;;;;;;5.85;5.25;;;8.50;99.90;;;;;;5085279;28;20200;-80
2024/01/26 05:00:19;;;;;;;5.30;4.80;;;8.60;99.90;;;;;;5073965;28;20229;-80
2024/01/26 05:02:47;;;;;;;5.18;4.60;;;8.60;99.90;;;;;;5075996;28;20193;-80
2024/01/26 05:05:14;;;;;;;5.00;4.50;;;8.60;99.90;;;;;;5081562;28;20213;-80
2024/01/26 05:07:40;;;;;;;6.07;4.78;;;8.60;99.90;;;;;;5076876;28;20202;-80
2024/01/26 05:10:09;;;;;;;5.15;4.20;;;8.60;99.90;;;;;;5081087;28;20704;-80
2024/01/26 05:12:36;;;;;;;4.70;4.20;;;8.60;99.90;;;;;;5077060;28;20201;-79
2024/01/26 05:15:03;;;;;;;4.30;3.90;;;8.50;99.90;;;;;;5074643;28;20201;-80
2024/01/26 05:17:31;;;;;;;4.53;4.10;;;8.50;99.90;;;;;;5087814;28;20197;-79
2024/01/26 05:19:58;;;;;;;4.38;3.97;;;8.60;99.90;;;;;;5059013;28;20225;-80
2024/01/26 05:22:25;;;;;;;4.60;3.83;;;8.60;99.90;;;;;;5088969;28;20193;-80
2024/01/26 05:24:52;;;;;;;4.30;3.80;;;8.50;99.90;;;;;;5087690;28;20205;-81
2024/01/26 05:27:19;;;;;;;4.75;4.22;;;8.50;99.90;;;;;;5078702;28;20197;-79
2024/01/26 05:29:45;;;;;;;4.28;3.63;;;8.60;99.90;;;;;;5082331;28;20572;-80
2024/01/26 05:32:12;;;;;;;4.00;3.60;;;8.60;99.90;;;;;;5081355;28;20291;-81
2024/01/26 05:34:40;;;;;;;3.72;3.42;;;8.60;99.90;;;;;;5094651;28;20203;-79
2024/01/26 05:37:07;;;;;;;5.85;3.70;;;8.60;99.90;;;;;;5079064;28;20205;-80
2024/01/26 05:39:34;;;;;;;3.88;3.03;;;8.60;99.90;;;;;;5083297;28;20611;-91
2024/01/26 05:42:00;;;;;;;3.50;3.20;;;8.60;99.90;;;;;;5082082;28;20196;-80
2024/01/26 05:44:28;;;;;;;3.75;3.17;;;8.60;99.90;;;;;;5086887;28;20196;-81
2024/01/26 05:46:54;;;;;;;4.55;3.20;;;8.70;99.90;;;;;;5078789;28;20212;-83
2024/01/26 05:49:23;;;;;;;3.10;2.80;;;8.60;99.90;;;;;;5083528;28;20205;-79
2024/01/26 05:51:51;;;;;;;2.90;2.58;;;8.60;99.90;;;;;;5089504;28;20230;-80
2024/01/26 05:54:18;;;;;;;3.42;2.90;;;8.60;99.90;;;;;;5084021;28;20207;-80
2024/01/26 05:56:45;;;;;;;4.65;2.88;;;8.60;99.90;;;;;;5078580;28;20196;-80
2024/01/26 05:59:11;;;;;;;3.00;2.70;;;8.50;99.90;;;;;;5076526;28;20199;-79
2024/01/26 06:01:38;;;;;;;3.00;2.47;;;8.60;99.90;;;;;;5080939;28;20189;-80
2024/01/26 06:04:06;;;;;;;2.50;2.30;;;8.50;99.90;;;;;;5077989;28;20224;-80
2024/01/26 06:06:33;;;;;;;3.17;2.50;;;8.50;99.90;;;;;;5082838;28;20189;-80
2024/01/26 06:09:02;;;;;;;2.40;2.20;;;8.50;99.90;;;;;;5082866;28;20223;-80
2024/01/26 06:11:29;;;;;;;2.83;2.38;;;8.50;99.90;;;;;;5084076;28;20189;-80
2024/01/26 06:13:56;;;;;;;2.50;2.30;;;8.50;99.90;;;;;;5083007;28;20193;-80
2024/01/26 06:16:22;;;;;;;2.20;1.80;;;8.50;99.90;;;;;;5086550;28;20192;-80
2024/01/26 06:18:49;;;;;;;3.08;2.38;;;8.50;99.90;;;;;;5086147;28;20209;-79
2024/01/26 06:21:16;;;;;;;2.08;1.80;;;8.50;99.90;;;;;;5077025;28;20224;-79
2024/01/26 06:23:43;;;;;;;2.03;1.88;;;8.40;99.90;;;;;;5086210;28;20196;-80
2024/01/26 06:26:11;;;;;;;1.98;1.80;;;8.50;99.90;;;;;;5076148;28;20204;-80
2024/01/26 06:28:38;;;;;;;2.08;1.70;;;8.50;99.90;;;;;;5074332;28;20272;-80
2024/01/26 06:31:04;;;;;;;2.13;1.77;;;8.50;99.90;;;;;;5083252;28;20204;-80
2024/01/26 06:33:32;;;;;;;2.13;1.92;;;8.50;99.90;;;;;;5077779;28;20195;-80
2024/01/26 06:35:59;;;;;;;3.55;1.90;;;8.40;99.90;;;;;;5084554;28;20193;-80
2024/01/26 06:38:40;;;;;;;2.03;1.90;;;8.40;99.90;;;;;;5086487;28;20200;-80
2024/01/26 06:41:06;;;;;;;1.90;1.75;;;8.50;99.90;;;;;;5078819;28;20208;-80
2024/01/26 06:43:35;;;;;;;1.70;1.58;;;8.40;99.90;;;;;;5081660;28;20197;-79
2024/01/26 06:46:02;;;;;;;2.22;1.70;;;8.40;99.90;;;;;;5082305;28;20207;-80
2024/01/26 06:48:28;;;;;;;2.10;1.60;;;8.40;99.90;;;;;;5083090;28;20726;-80
2024/01/26 06:50:55;;;;;;;3.15;1.60;;;8.40;99.90;;;;;;5084305;28;20211;-80
2024/01/26 06:53:22;;;;;;;3.08;1.90;;;8.40;99.90;;;;;;5080647;28;20224;-80
2024/01/26 06:55:49;;;;;;;3.63;1.58;;;8.40;99.90;;;;;;5088240;28;20307;-80
2024/01/26 06:58:17;;;;;;;2.08;1.40;;;8.40;99.90;;;;;;5085062;28;20203;-80
2024/01/26 07:00:46;;;;;;;2.58;1.63;;;8.50;99.90;;;;;;5080680;28;20747;-80
2024/01/26 07:03:13;;;;;;;1.98;1.45;;;8.40;99.90;;;;;;5088449;28;20192;-79
2024/01/26 07:05:40;;;;;;;2.28;1.73;;;8.50;99.90;;;;;;5083233;28;20247;-80
2024/01/26 07:08:08;;;;;;;2.33;1.70;;;8.40;99.90;;;;;;5084634;28;20193;-82
2024/01/26 07:10:35;;;;;;;1.65;1.55;;;8.50;99.90;;;;;;5081209;28;20215;-80
2024/01/26 07:13:01;;;;;;;3.75;1.42;;;8.40;99.90;;;;;;5084585;28;20205;-82
2024/01/26 07:15:29;;;;;;;2.00;1.70;;;8.50;99.90;;;;;;5082996;28;20197;-81
2024/01/26 07:17:58;;;;;;;1.60;1.50;;;8.60;99.90;;;;;;5079209;28;20591;-81
2024/01/26 07:20:24;;;;;;;3.38;1.85;;;8.60;99.90;;;;;;5081869;28;20216;-81
2024/01/26 07:22:51;;;;;;;4.13;1.30;;;8.60;99.90;;;;;;5089780;28;20748;-82
2024/01/26 07:25:20;;;;;;;1.80;1.70;;;8.60;99.90;;;;;;5081134;28;20226;-80
2024/01/26 07:27:46;;;;;;;1.98;1.25;;;8.60;99.90;;;;;;5084034;28;20220;-80
2024/01/26 07:30:15;;;;;;;1.80;1.23;;;8.60;99.90;;;;;;5085848;28;20215;-82
2024/01/26 07:32:42;;;;;;;2.97;1.25;;;8.70;99.90;;;;;;5088855;28;20201;-81
2024/01/26 07:35:11;;;;;;;1.70;1.42;;;8.70;99.90;;;;;;5084527;28;20200;-81
2024/01/26 07:37:39;;;;;;;1.52;1.15;;;8.60;99.90;;;;;;5082975;28;20199;-81
2024/01/26 07:40:13;;;;;;;4.60;1.60;;;8.70;99.90;;;;;;5088130;28;20209;-82
2024/01/26 07:42:39;;;;;;;1.63;1.20;;;8.70;99.90;;;;;;5079066;28;20221;-81
2024/01/26 07:45:06;;;;;;;2.58;1.50;;;8.80;99.90;;;;;;5081400;28;20553;-80
2024/01/26 07:47:34;;;;;;;2.13;1.30;;;8.80;99.70;;;;;;5084158;28;20243;-80
2024/01/26 07:50:02;;;;;;;1.80;1.60;;;8.80;99.80;;;;;;5085099;28;20676;-79
2024/01/26 07:52:30;;;;;;;1.58;1.30;;;8.90;99.20;;;;;;5088487;28;20201;-79
2024/01/26 07:54:57;;;;;;;1.83;1.48;;;8.90;99.20;;;;;;5083404;28;20669;-81
2024/01/26 07:57:25;;;;;;;2.88;1.40;;;8.90;99.00;;;;;;5086237;28;20565;-81
2024/01/26 07:59:52;;;;;;;3.28;1.50;;;8.90;99.00;;;;;;5088197;28;20208;-80
2024/01/26 08:02:19;;;;;;;1.52;1.42;;;9.00;98.60;;;;;;5084100;28;20193;-80
2024/01/26 08:04:46;;;;;;;2.13;1.30;;;9.00;98.60;;;;;;5080304;28;20220;-80
2024/01/26 08:07:15;;;;;;;1.65;1.30;;;9.10;98.30;;;;;;5079784;28;20203;-80
2024/01/26 08:09:44;;;;;;;2.78;1.30;;;9.10;98.00;;;;;;5091539;28;20235;-80
2024/01/26 08:12:11;;;;;;;2.80;1.73;;;9.10;98.20;;;;;;5082819;28;20217;-80
2024/01/26 08:14:37;;;;;;;3.08;1.60;;;9.20;97.30;;;;;;5084281;28;20683;-79
2024/01/26 08:17:05;;;;;;;2.92;1.60;;;9.30;96.80;;;;;;5084891;28;20193;-80
2024/01/26 08:19:32;;;;;;;3.25;1.70;;;9.40;96.00;;;;;;5084577;28;20211;-80
2024/01/26 08:21:58;;;;;;;5.63;1.50;;;9.50;96.30;;;;;;5082774;28;20228;-80
2024/01/26 08:24:25;;;;;;;2.25;1.50;;;9.50;96.00;;;;;;5086247;28;20203;-80
2024/01/26 08:26:54;;;;;;;1.85;1.23;;;9.50;96.00;;;;;;5087482;28;20201;-80
2024/01/26 08:29:24;;;;;;;1.98;1.23;;;9.50;96.00;;;;;;5070198;28;20201;-80
2024/01/26 08:31:51;;;;;;;1.50;1.40;;;9.50;95.30;;;;;;5082806;28;20586;-80
2024/01/26 08:34:19;;;;;;;3.28;1.20;;;9.60;94.60;;;;;;5077585;28;20205;-79
2024/01/26 08:36:46;;;;;;;2.92;1.52;;;9.50;95.10;;;;;;5083849;28;20703;-80
2024/01/26 08:39:13;;;;;;;1.73;1.33;;;9.60;95.50;;;;;;5084467;28;20196;-80
2024/01/26 08:41:43;;;;;;;3.92;1.20;;;9.60;95.00;;;;;;5086305;28;20765;-80
2024/01/26 08:44:11;;;;;;;4.63;1.55;;;9.70;94.30;;;;;;5081911;28;20208;-80
2024/01/26 08:46:39;;;;;;;5.05;1.75;;;9.80;93.70;;;;;;5087241;28;20216;-80
2024/01/26 08:49:06;;;;;;;1.67;1.15;;;9.80;93.80;;;;;;5084923;28;20205;-82
2024/01/26 08:51:53;;;;;;;3.25;1.45;;;10.00;92.70;;;;;;5086524;28;20670;-79
2024/01/26 08:54:20;;;;;;;1.33;0.93;;;10.00;92.40;;;;;;5078492;28;20204;-80
2024/01/26 08:56:47;;;;;;;3.70;1.27;;;10.20;91.70;;;;;;5080052;28;20266;-80
2024/01/26 08:59:16;;;;;;;3.65;1.38;;;10.40;91.60;;;;;;5079472;28;20201;-79
2024/01/26 09:01:43;;;;;;;1.10;1.00;;;10.50;90.80;;;;;;5086833;28;20216;-80
2024/01/26 09:04:10;;;;;;;1.45;1.10;;;10.70;90.40;;;;;;5083655;28;20226;-80
2024/01/26 09:06:37;;;;;;;1.35;1.25;;;10.70;89.60;;;;;;5091533;28;20200;-80
2024/01/26 09:09:09;;;;;;;1.73;1.05;;;10.80;89.30;;;;;;5081059;28;20193;-80
2024/01/26 09:11:36;;;;;;;1.15;1.05;;;10.90;89.00;;;;;;5084656;28;20684;-80
2024/01/26 09:14:03;;;;;;;1.40;1.20;;;10.90;87.40;;;;;;5079647;28;20219;-82
2024/01/26 09:16:36;;;;;;;1.30;1.08;;;11.00;86.80;;;;;;5084449;28;20204;-82
2024/01/26 09:19:03;;;;;;;0.85;0.85;;;11.10;85.20;;;;;;5089040;28;20287;-84
2024/01/26 09:21:30;;;;;;;2.25;0.80;;;11.00;83.80;;;;;;5089260;28;20275;-80
2024/01/26 09:23:57;;;;;;;0.85;0.80;;;11.10;83.20;;;;;;5063655;28;20197;-81
2024/01/26 09:26:24;;;;;;;1.25;1.05;;;11.00;82.30;;;;;;5081806;28;20642;-79
2024/01/26 09:28:51;;;;;;;1.63;1.25;;;11.00;84.80;;;;;;5085257;28;20617;-80
2024/01/26 09:31:18;;;;;;;1.45;1.00;;;11.00;81.00;;;;;;5078887;28;20212;-79
2024/01/26 09:33:47;;;;;;;1.02;1.00;;;11.00;83.60;;;;;;5079322;28;20197;-79
2024/01/26 09:36:13;;;;;;;1.77;0.82;;;11.20;82.40;;;;;;5090395;28;20203;-79
2024/01/26 09:38:40;;;;;;;1.13;0.85;;;11.40;80.70;;;;;;5084484;28;20203;-80
2024/01/26 09:41:07;;;;;;;1.33;0.90;;;11.40;79.60;;;;;;5078343;28;20217;-80
2024/01/26 09:43:47;;;;;;;0.88;0.80;;;11.40;78.70;;;;;;5081595;28;20219;-79
2024/01/26 09:46:15;;;;;;;1.00;0.90;;;11.50;77.00;;;;;;5080860;28;20231;-81
2024/01/26 09:48:44;;;;;;;1.35;0.93;;;11.40;78.20;;;;;;5079716;28;20208;-80
2024/01/26 09:51:49;;;;;;;2.03;0.93;;;11.50;77.00;;;;;;5087979;28;20211;-82
2024/01/26 09:54:19;;;;;;;1.00;0.80;;;11.70;75.00;;;;;;5055092;28;20197;-80
2024/01/26 09:56:47;;;;;;;1.95;0.90;;;11.70;75.00;;;;;;5089986;28;20679;-80
2024/01/26 09:59:14;;;;;;;0.80;0.80;;;11.80;69.70;;;;;;5089244;28;20199;-79
2024/01/26 10:01:41;;;;;;;1.75;0.95;;;11.90;69.80;;;;;;5082355;28;20217;-79
2024/01/26 10:04:09;;;;;;;0.88;0.80;;;11.90;73.50;;;;;;5084283;28;20266;-80
2024/01/26 10:06:42;;;;;;;1.20;1.10;;;12.00;70.90;;;;;;5082499;28;20204;-80
2024/01/26 10:09:15;;;;;;;1.45;1.00;;;11.80;75.00;;;;;;5085373;28;20192;-81
2024/01/26 10:11:41;;;;;;;1.52;1.08;;;11.70;73.90;;;;;;5085865;28;20603;-80
2024/01/26 10:14:21;;;;;;;1.48;1.00;;;11.60;74.90;;;;;;5076956;28;20556;-80
2024/01/26 10:16:55;;;;;;;1.98;1.05;;;11.60;74.90;;;;;;5079646;28;20594;-81
2024/01/26 10:19:25;;;;;;;1.20;1.10;;;11.60;74.90;;;;;;5082990;28;20220;-81
2024/01/26 10:21:54;;;;;;;1.63;1.08;;;11.60;74.90;;;;;;5077912;28;20232;-82
2024/01/26 10:24:23;;;;;;;1.33;1.10;;;11.70;75.00;;;;;;5078834;28;20568;-82
2024/01/26 10:26:52;;;;;;;1.00;0.93;;;11.90;73.60;;;;;;5069386;28;20197;-81
2024/01/26 10:29:19;;;;;;;2.08;1.23;;;12.00;71.20;;;;;;5082713;28;20204;-81
2024/01/26 10:31:47;;;;;;;1.20;1.10;;;12.20;70.50;;;;;;5078921;28;20201;-81
2024/01/26 10:34:15;;;;;;;1.33;1.17;;;12.40;68.50;;;;;;5074706;28;20532;-82
2024/01/26 10:36:44;;;;;;;1.50;1.40;;;12.60;67.60;;;;;;5079754;28;20208;-80
2024/01/26 10:39:19;;;;;;;1.50;1.38;;;12.80;60.90;;;;;;5075285;28;20734;-80
2024/01/26 10:41:50;;;;;;;1.30;1.20;;;13.00;57.00;;;;;;5083067;28;20205;-81
2024/01/26 10:44:20;;;;;;;1.48;1.00;;;13.00;58.30;;;;;;5086739;28;20192;-82
2024/01/26 10:46:47;;;;;;;1.50;1.20;;;12.90;56.40;;;;;;5089111;28;20201;-83
2024/01/26 10:49:17;;;;;;;2.53;1.10;;;12.70;59.60;;;;;;5090680;28;20846;-82
2024/01/26 10:51:46;;;;;;;1.08;0.98;;;12.60;58.70;;;;;;5080160;28;20197;-80
2024/01/26 10:54:35;;;;;;;1.70;1.17;;;12.40;58.70;;;;;;5091667;28;20199;-81
2024/01/26 10:57:32;;;;;;;1.60;1.10;;;12.50;59.30;;;;;;5088599;28;20292;-80
2024/01/26 11:00:00;;;;;;;3.08;1.20;;;12.60;59.00;;;;;;5079071;28;20564;-80
2024/01/26 11:02:31;;;;;;;1.30;1.20;;;12.80;59.70;;;;;;5086610;28;20223;-80
2024/01/26 11:04:59;;;;;;;1.00;1.00;;;12.90;55.60;;;;;;5087630;28;20217;-81
2024/01/26 11:07:26;;;;;;;1.60;1.30;;;12.90;57.40;;;;;;5084207;28;20254;-79
2024/01/26 11:10:00;;;;;;;2.00;0.95;;;13.20;55.40;;;;;;5090031;28;20200;-80
2024/01/26 11:12:29;;;;;;;3.38;1.98;;;13.10;54.70;;;;;;5079671;28;20318;-81
2024/01/26 11:15:09;;;;;;;1.40;1.30;;;13.10;54.30;;;;;;5087507;28;20201;-80
2024/01/26 11:17:45;;;;;;;2.92;2.28;;;13.00;55.60;;;;;;5092273;28;20200;-80
2024/01/26 11:20:18;;;;;;;1.65;1.10;;;12.90;54.40;;;;;;5090137;28;20287;-80
2024/01/26 11:22:45;;;;;;;2.15;0.95;;;12.80;56.40;;;;;;5096460;28;20266;-79
2024/01/26 11:25:35;;;;;;;0.98;0.90;;;12.80;56.00;;;;;;5083797;28;20378;-79
2024/01/26 11:28:04;;;;;;;1.95;1.20;;;12.90;55.20;;;;;;5080974;28;20219;-80
2024/01/26 11:30:31;;;;;;;1.10;1.00;;;12.90;55.50;;;;;;5085194;28;20258;-80
2024/01/26 11:32:58;;;;;;;3.25;1.00;;;13.00;56.40;;;;;;5094454;28;20206;-80
2024/01/26 11:35:25;;;;;;;0.93;0.90;;;13.10;55.40;;;;;;5093774;28;20279;-82
2024/01/26 11:37:54;;;;;;;1.10;1.00;;;13.20;54.50;;;;;;5069052;28;20200;-82
2024/01/26 11:40:23;;;;;;;1.10;1.00;;;13.30;52.20;;;;;;5091802;28;20196;-82
2024/01/26 11:42:52;;;;;;;3.28;1.30;;;13.20;53.30;;;;;;5091451;28;20228;-81
2024/01/26 11:45:41;;;;;;;2.47;1.00;;;13.00;53.00;;;;;;5087735;28;20189;-83
2024/01/26 11:48:09;;;;;;;2.97;1.30;;;12.90;54.40;;;;;;5091331;28;20197;-81
2024/01/26 11:50:37;;;;;;;1.30;1.20;;;12.90;55.80;;;;;;5090890;28;20204;-82
2024/01/26 11:53:05;;;;;;;1.02;0.90;;;12.90;53.70;;;;;;5080948;28;20865;-80
2024/01/26 11:55:33;;;;;;;2.35;1.30;;;13.00;53.70;;;;;;5084785;28;20675;-81
2024/01/26 11:58:16;;;;;;;0.85;0.85;;;13.20;53.00;;;;;;5080437;28;20201;-80
2024/01/26 12:01:00;;;;;;;1.90;0.90;;;13.20;51.60;;;;;;5090745;28;20201;-80
2024/01/26 12:03:28;;;;;;;1.10;1.00;;;13.20;51.50;;;;;;5083942;28;20228;-83
2024/01/26 12:05:55;;;;;;;2.05;1.20;;;13.30;50.70;;;;;;5064042;28;20224;-81
2024/01/26 12:08:23;;;;;;;1.80;1.20;;;13.30;49.80;;;;;;5079606;28;20203;-80
2024/01/26 12:10:50;;;;;;;3.70;1.10;;;13.40;51.00;;;;;;5084398;28;20669;-86
2024/01/26 12:13:19;;;;;;;2.25;1.13;;;13.30;49.90;;;;;;5088731;28;20280;-80
2024/01/26 12:15:46;;;;;;;1.15;1.00;;;13.30;49.80;;;;;;5085534;28;20203;-85
2024/01/26 12:18:13;;;;;;;1.45;1.17;;;13.30;49.80;;;;;;5092689;28;20205;-80
2024/01/26 12:20:40;;;;;;;3.55;1.35;;;13.20;51.10;;;;;;5082690;28;20197;-80
2024/01/26 12:23:26;;;;;;;1.30;1.10;;;13.20;53.30;;;;;;5086737;28;20223;-81
2024/01/26 12:25:54;;;;;;;3.30;1.15;;;13.10;52.90;;;;;;5067187;28;20730;-81
2024/01/26 12:28:26;;;;;;;1.67;1.00;;;12.90;56.90;;;;;;5082447;28;20320;-83
2024/01/26 12:30:53;;;;;;;1.90;1.17;;;12.80;58.10;;;;;;5088776;28;20228;-79
2024/01/26 12:33:23;;;;;;;1.17;1.02;;;12.80;59.40;;;;;;5088508;28;20200;-80
2024/01/26 12:35:52;;;;;;;1.30;1.00;;;12.60;61.80;;;;;;5081048;28;20201;-80
2024/01/26 12:38:19;;;;;;;1.30;1.00;;;12.50;63.80;;;;;;5085154;28;20368;-82
2024/01/26 12:40:47;;;;;;;1.23;0.95;;;12.50;66.60;;;;;;5084031;28;20197;-79
2024/01/26 12:43:13;;;;;;;1.30;1.20;;;12.30;70.00;;;;;;5088348;28;20290;-80
2024/01/26 12:45:42;;;;;;;1.40;1.30;;;12.10;72.10;;;;;;5081978;28;20197;-79
2024/01/26 12:48:08;;;;;;;2.00;1.30;;;12.00;72.70;;;;;;5087608;28;20224;-80
2024/01/26 12:50:36;;;;;;;1.42;1.10;;;11.90;75.10;;;;;;5084990;28;20201;-80
2024/01/26 12:53:03;;;;;;;1.00;0.98;;;12.00;75.20;;;;;;5091285;28;20211;-80
2024/01/26 12:55:29;;;;;;;1.27;1.17;;;11.90;76.60;;;;;;5081323;28;20221;-80
2024/01/26 12:57:56;;;;;;;1.23;1.10;;;11.90;79.80;;;;;;5091304;28;20777;-79